Time;durP1;ratioP1;P1;durP2;ratioP2;P2;SDS_P1;SDS_P2;PMS_P1;PMS_P2;Temp;Humidity;BMP_temperature;BMP_pressure;BME280_temperature;BME280_humidity;BME280_pressure;Samples;Min_cycle;Max_cycle;Signal;HPM_P1;HPM_P2
2023/01/19 00:00:21;;;;;;;16.67;7.18;;;-2.60;99.90;;;;;;4217285;28;20205;-81
2023/01/19 00:02:23;;;;;;;15.55;6.38;;;-2.60;99.90;;;;;;4213922;28;20306;-82
2023/01/19 00:04:27;;;;;;;18.08;6.78;;;-2.70;99.90;;;;;;4199293;28;20237;-81
2023/01/19 00:06:29;;;;;;;19.65;6.80;;;-2.70;99.90;;;;;;4198279;28;20264;-81
2023/01/19 00:08:30;;;;;;;16.98;6.80;;;-2.60;99.90;;;;;;4197185;28;20255;-81
2023/01/19 00:10:32;;;;;;;16.00;6.13;;;-1.80;99.90;;;;;;4199138;28;20206;-81
2023/01/19 00:12:34;;;;;;;15.90;7.28;;;-2.60;99.90;;;;;;4214796;28;20231;-81
2023/01/19 00:14:36;;;;;;;16.98;6.72;;;-2.70;99.90;;;;;;4202009;28;20236;-82
2023/01/19 00:16:41;;;;;;;13.75;5.63;;;-2.70;99.90;;;;;;4199932;28;20284;-81
2023/01/19 00:18:43;;;;;;;16.08;6.28;;;-2.70;99.90;;;;;;4218584;28;20815;-81
2023/01/19 00:20:47;;;;;;;17.70;5.88;;;-2.70;99.90;;;;;;4204924;28;20213;-82
2023/01/19 00:22:49;;;;;;;17.20;5.85;;;-2.10;99.90;;;;;;4212794;28;20217;-82
2023/01/19 00:24:51;;;;;;;15.52;6.38;;;-2.80;99.90;;;;;;4211268;28;20201;-82
2023/01/19 00:26:53;;;;;;;21.23;6.88;;;-2.80;99.90;;;;;;4211500;28;20202;-81
2023/01/19 00:28:56;;;;;;;21.08;6.10;;;-2.00;99.90;;;;;;4208305;28;20220;-82
2023/01/19 00:30:58;;;;;;;15.50;6.82;;;-2.90;99.90;;;;;;4206585;28;20202;-82
2023/01/19 00:33:00;;;;;;;15.23;6.15;;;-2.90;99.90;;;;;;4202272;28;20287;-81
2023/01/19 00:35:02;;;;;;;13.32;5.60;;;-2.90;99.90;;;;;;4196556;28;20213;-81
2023/01/19 00:37:05;;;;;;;14.23;5.60;;;-2.80;99.90;;;;;;4204848;28;20206;-82
2023/01/19 00:39:07;;;;;;;16.73;6.25;;;-2.90;99.90;;;;;;4217532;28;20232;-81
2023/01/19 00:41:09;;;;;;;12.30;5.57;;;-2.90;99.90;;;;;;4202043;28;20229;-81
2023/01/19 00:43:10;;;;;;;13.00;6.25;;;-2.90;99.90;;;;;;4199164;28;20482;-81
2023/01/19 00:45:17;;;;;;;13.80;5.50;;;-2.50;99.90;;;;;;4203977;28;20667;-81
2023/01/19 00:47:19;;;;;;;14.25;6.32;;;-2.60;99.90;;;;;;4201057;28;20312;-81
2023/01/19 00:49:21;;;;;;;18.23;7.45;;;-3.00;99.90;;;;;;4217987;28;20205;-82
2023/01/19 00:51:23;;;;;;;16.77;7.28;;;-3.00;99.90;;;;;;4203897;28;20740;-81
2023/01/19 00:53:27;;;;;;;19.02;5.90;;;-3.00;99.90;;;;;;4219573;28;20264;-81
2023/01/19 00:55:31;;;;;;;15.07;6.30;;;-3.00;99.90;;;;;;4208119;28;20222;-81
2023/01/19 00:57:33;;;;;;;14.27;6.15;;;-1.90;99.90;;;;;;4202911;28;20222;-82
2023/01/19 00:59:35;;;;;;;12.55;5.90;;;-3.00;99.90;;;;;;4205297;28;20221;-81
2023/01/19 01:01:37;;;;;;;18.00;6.07;;;-2.90;99.90;;;;;;4203429;28;20288;-81
2023/01/19 01:03:39;;;;;;;12.57;5.72;;;-2.70;99.90;;;;;;4195106;28;20217;-81
2023/01/19 01:05:42;;;;;;;13.77;6.15;;;-3.20;99.90;;;;;;4216612;28;20694;-81
2023/01/19 01:07:44;;;;;;;13.35;5.80;;;-2.90;99.90;;;;;;4216463;28;20209;-81
2023/01/19 01:09:47;;;;;;;11.27;5.65;;;-2.90;99.90;;;;;;4199126;28;20214;-81
2023/01/19 01:11:50;;;;;;;17.58;6.75;;;-2.90;99.90;;;;;;4202448;28;20206;-81
2023/01/19 01:13:52;;;;;;;15.27;5.50;;;-2.90;99.90;;;;;;4197902;28;20377;-81
2023/01/19 01:15:55;;;;;;;12.95;6.28;;;-3.00;99.90;;;;;;4200905;28;20206;-81
2023/01/19 01:17:57;;;;;;;13.18;5.78;;;-2.60;99.90;;;;;;4199492;28;20316;-81
2023/01/19 01:19:59;;;;;;;14.57;5.70;;;-2.90;99.90;;;;;;4215014;28;20198;-81
2023/01/19 01:22:01;;;;;;;12.23;5.95;;;-3.00;99.90;;;;;;4216216;28;20215;-81
2023/01/19 01:24:04;;;;;;;13.63;5.93;;;-3.00;99.90;;;;;;4205089;28;20233;-81
2023/01/19 01:26:07;;;;;;;14.10;5.80;;;-3.30;99.90;;;;;;4203663;28;20209;-81
2023/01/19 01:28:10;;;;;;;15.68;5.55;;;-3.00;99.90;;;;;;4203374;28;20203;-81
2023/01/19 01:30:14;;;;;;;17.35;6.40;;;-3.00;99.90;;;;;;4202852;28;20233;-81
2023/01/19 01:32:16;;;;;;;15.25;5.85;;;-3.10;99.90;;;;;;4198047;28;21144;-81
2023/01/19 01:34:18;;;;;;;21.58;6.00;;;-2.20;99.90;;;;;;4201307;28;20233;-81
2023/01/19 01:36:20;;;;;;;11.93;5.28;;;-3.10;99.90;;;;;;4203465;28;20553;-81
2023/01/19 01:38:22;;;;;;;13.77;5.82;;;-3.10;99.90;;;;;;4201985;28;20233;-81
2023/01/19 01:40:24;;;;;;;14.27;5.72;;;-3.10;99.90;;;;;;4205467;28;20286;-81
2023/01/19 01:42:30;;;;;;;15.77;5.78;;;-3.10;99.90;;;;;;4202025;28;20244;-81
2023/01/19 01:44:49;;;;;;;12.98;5.07;;;-3.10;99.90;;;;;;4204133;28;20245;-81
2023/01/19 01:46:51;;;;;;;13.98;5.22;;;-3.20;99.90;;;;;;4201329;28;20213;-81
2023/01/19 01:48:57;;;;;;;12.88;5.18;;;-3.20;99.90;;;;;;4200771;28;20209;-82
2023/01/19 01:53:23;;;;;;;11.20;5.05;;;-3.20;99.90;;;;;;4199357;28;20225;-80
2023/01/19 01:55:27;;;;;;;11.93;5.28;;;-3.20;99.90;;;;;;4201981;28;20486;-81
2023/01/19 01:57:30;;;;;;;12.65;5.13;;;-3.20;99.90;;;;;;4203759;28;20281;-81
2023/01/19 01:59:37;;;;;;;13.85;5.18;;;-3.20;99.90;;;;;;4203751;28;20232;-80
2023/01/19 02:03:59;;;;;;;10.95;4.80;;;-3.30;99.90;;;;;;4204812;28;20236;-81
2023/01/19 02:06:06;;;;;;;13.73;5.10;;;-2.10;99.90;;;;;;4208611;28;20790;-81
2023/01/19 02:15:19;;;;;;;14.20;5.25;;;-3.40;99.90;;;;;;4204629;28;20229;-81
2023/01/19 02:17:21;;;;;;;12.77;5.45;;;-3.40;99.90;;;;;;4203022;28;20217;-81
2023/01/19 02:19:27;;;;;;;13.27;5.72;;;-3.40;99.90;;;;;;4204135;28;21012;-80
2023/01/19 02:21:36;;;;;;;12.15;4.65;;;-3.40;99.90;;;;;;4203658;28;20301;-80
2023/01/19 02:23:44;;;;;;;12.77;4.57;;;-3.40;99.90;;;;;;4207804;28;20653;-81
2023/01/19 02:25:47;;;;;;;17.83;5.40;;;-3.20;99.90;;;;;;4203971;28;20307;-80
2023/01/19 02:27:52;;;;;;;14.27;4.93;;;-3.20;99.90;;;;;;4203484;28;20220;-80
2023/01/19 02:29:54;;;;;;;13.23;4.88;;;-3.50;99.90;;;;;;4201949;28;20214;-80
2023/01/19 02:31:58;;;;;;;11.50;4.63;;;-3.50;99.90;;;;;;4203691;28;20212;-80
2023/01/19 02:34:01;;;;;;;8.48;4.47;;;-3.40;99.90;;;;;;4202345;28;20606;-81
2023/01/19 02:36:06;;;;;;;16.80;5.13;;;-3.50;99.90;;;;;;4201879;28;20297;-81
2023/01/19 02:38:10;;;;;;;9.27;4.53;;;-3.50;99.90;;;;;;4202846;28;20723;-80
2023/01/19 02:40:18;;;;;;;11.80;5.05;;;-3.50;99.90;;;;;;4203406;28;20214;-81
2023/01/19 02:42:25;;;;;;;11.27;4.95;;;-3.50;99.90;;;;;;4203102;28;20237;-81
2023/01/19 02:44:29;;;;;;;12.98;4.88;;;-3.00;99.90;;;;;;4204346;28;20221;-80
2023/01/19 02:46:31;;;;;;;11.95;4.97;;;-3.50;99.90;;;;;;4204840;28;20278;-80
2023/01/19 02:48:33;;;;;;;12.82;4.97;;;-3.50;99.90;;;;;;4202115;28;20237;-82
2023/01/19 02:50:42;;;;;;;10.48;4.40;;;-3.50;99.90;;;;;;4206801;28;20216;-80
2023/01/19 02:52:44;;;;;;;12.88;4.70;;;-4.00;99.90;;;;;;4202905;28;20249;-81
2023/01/19 02:54:58;;;;;;;11.93;4.53;;;-3.50;99.90;;;;;;4204221;28;20640;-80
2023/01/19 02:57:32;;;;;;;13.40;4.88;;;-3.60;99.90;;;;;;4200852;28;20223;-80
2023/01/19 02:59:49;;;;;;;12.73;4.60;;;-3.60;99.90;;;;;;4192812;28;20313;-80
2023/01/19 03:02:15;;;;;;;10.57;4.43;;;-3.60;99.90;;;;;;4202184;28;20234;-80
2023/01/19 03:04:27;;;;;;;14.38;4.15;;;-3.60;99.90;;;;;;4200912;28;20229;-80
2023/01/19 03:06:42;;;;;;;12.75;4.50;;;-3.60;99.90;;;;;;4200973;28;20224;-81
2023/01/19 03:08:52;;;;;;;14.52;4.82;;;-3.20;99.90;;;;;;4202096;28;21105;-80
2023/01/19 03:10:59;;;;;;;12.77;4.55;;;-3.60;99.90;;;;;;4201733;28;20208;-80
2023/01/19 03:13:10;;;;;;;10.55;4.18;;;-3.60;99.90;;;;;;4199873;28;20236;-80
2023/01/19 03:15:19;;;;;;;10.73;4.38;;;-3.60;99.90;;;;;;4200034;28;20208;-79
2023/01/19 03:17:22;;;;;;;11.82;4.65;;;-3.60;99.90;;;;;;4200362;28;20197;-80
2023/01/19 03:19:28;;;;;;;12.23;4.38;;;-3.60;99.90;;;;;;4199254;28;20249;-80
2023/01/19 03:21:33;;;;;;;9.82;4.30;;;-3.60;99.90;;;;;;4199928;28;20689;-80
2023/01/19 03:23:40;;;;;;;11.73;4.80;;;-3.00;99.90;;;;;;4196904;28;20221;-80
2023/01/19 03:25:45;;;;;;;13.57;4.85;;;-2.90;99.90;;;;;;4200821;28;20229;-80
2023/01/19 03:27:51;;;;;;;12.05;4.20;;;-3.60;99.90;;;;;;4198044;28;20206;-80
2023/01/19 03:29:57;;;;;;;8.85;4.20;;;-3.60;99.90;;;;;;4215139;28;20215;-79
2023/01/19 03:32:01;;;;;;;11.23;4.13;;;-3.70;99.90;;;;;;4200147;28;20221;-80
2023/01/19 03:34:08;;;;;;;9.55;3.83;;;-3.70;99.90;;;;;;4213116;28;20225;-79
2023/01/19 03:36:15;;;;;;;11.85;4.18;;;-3.70;99.90;;;;;;4193011;28;20230;-79
2023/01/19 03:38:24;;;;;;;10.88;4.45;;;-3.70;99.90;;;;;;4200965;28;20217;-80
2023/01/19 03:40:29;;;;;;;13.63;4.55;;;-3.70;99.90;;;;;;4199846;28;20795;-79
2023/01/19 03:42:31;;;;;;;11.13;4.40;;;-3.70;99.90;;;;;;4199638;28;20243;-80
2023/01/19 03:44:36;;;;;;;10.90;4.68;;;-3.70;99.90;;;;;;4196604;28;20619;-80
2023/01/19 03:46:40;;;;;;;11.27;4.15;;;-3.70;99.90;;;;;;4196502;28;20210;-78
2023/01/19 03:48:42;;;;;;;9.50;4.00;;;-3.40;99.90;;;;;;4194094;28;20201;-80
2023/01/19 03:50:44;;;;;;;8.90;3.65;;;-3.80;99.90;;;;;;4196718;28;20230;-80
2023/01/19 03:52:59;;;;;;;12.07;4.13;;;-3.80;99.90;;;;;;4189633;28;20345;-80
2023/01/19 03:55:02;;;;;;;8.13;3.80;;;-3.80;99.90;;;;;;4193956;28;20213;-79
2023/01/19 03:57:04;;;;;;;9.98;3.65;;;-3.20;99.90;;;;;;4192801;28;20729;-80
2023/01/19 03:59:06;;;;;;;8.32;3.20;;;-3.80;99.90;;;;;;4211480;28;21175;-80
2023/01/19 04:01:09;;;;;;;8.88;3.67;;;-4.00;99.90;;;;;;4195634;28;20680;-80
2023/01/19 04:03:15;;;;;;;6.82;3.28;;;-3.80;99.90;;;;;;4212264;28;20274;-80
2023/01/19 04:05:17;;;;;;;10.80;3.65;;;-3.80;99.90;;;;;;4208261;28;20231;-79
2023/01/19 04:07:19;;;;;;;9.20;3.22;;;-2.70;99.90;;;;;;4196909;28;20202;-79
2023/01/19 04:09:21;;;;;;;8.73;3.85;;;-3.90;99.90;;;;;;4196984;28;21117;-80
2023/01/19 04:11:23;;;;;;;6.97;3.20;;;-3.80;99.90;;;;;;4200024;28;20235;-79
2023/01/19 04:13:28;;;;;;;7.60;3.25;;;-3.90;99.90;;;;;;4215964;28;20229;-80
2023/01/19 04:15:31;;;;;;;7.03;3.13;;;-3.90;99.90;;;;;;4199136;28;20702;-80
2023/01/19 04:17:33;;;;;;;7.57;3.13;;;-3.90;99.90;;;;;;4210649;28;20254;-80
2023/01/19 04:19:37;;;;;;;10.20;3.63;;;-3.90;99.90;;;;;;4211687;28;20262;-79
2023/01/19 04:21:39;;;;;;;7.10;2.92;;;-3.80;99.90;;;;;;4210426;28;20209;-81
2023/01/19 04:23:40;;;;;;;7.47;3.42;;;-3.50;99.90;;;;;;4206913;28;20225;-79
2023/01/19 04:25:43;;;;;;;5.70;3.05;;;-3.90;99.90;;;;;;4194805;28;20755;-79
2023/01/19 04:27:44;;;;;;;6.43;3.10;;;-3.90;99.90;;;;;;4197985;28;20209;-79
2023/01/19 04:29:46;;;;;;;8.40;3.38;;;-4.00;99.90;;;;;;4195869;28;20206;-80
2023/01/19 04:31:48;;;;;;;6.22;3.17;;;-3.80;99.90;;;;;;4198483;28;20601;-80
2023/01/19 04:33:51;;;;;;;7.22;3.08;;;-4.00;99.90;;;;;;4198888;28;20222;-80
2023/01/19 04:35:54;;;;;;;9.07;3.42;;;-4.00;99.90;;;;;;4208693;28;20308;-80
2023/01/19 04:37:56;;;;;;;8.63;3.67;;;-4.00;99.90;;;;;;4195883;28;21060;-79
2023/01/19 04:39:58;;;;;;;8.63;4.10;;;-4.00;99.90;;;;;;4214590;28;20239;-79
2023/01/19 04:42:00;;;;;;;9.48;3.88;;;-4.00;99.90;;;;;;4215532;28;20690;-80
2023/01/19 04:44:02;;;;;;;7.05;3.20;;;-4.00;99.90;;;;;;4198096;28;20217;-79
2023/01/19 04:46:05;;;;;;;10.20;3.80;;;-4.40;99.90;;;;;;4192901;28;20213;-81
2023/01/19 04:48:07;;;;;;;11.10;4.00;;;-4.00;99.90;;;;;;4198566;28;20220;-80
2023/01/19 04:50:10;;;;;;;9.02;3.97;;;-4.10;99.90;;;;;;4198443;28;20228;-80
2023/01/19 04:52:13;;;;;;;9.07;3.90;;;-4.10;99.90;;;;;;4192342;28;20204;-79
2023/01/19 04:54:15;;;;;;;10.60;4.03;;;-3.20;99.90;;;;;;4198680;28;20267;-80
2023/01/19 04:56:17;;;;;;;7.50;3.47;;;-4.10;99.90;;;;;;4198471;28;20208;-80
2023/01/19 04:58:19;;;;;;;10.25;4.03;;;-4.10;99.90;;;;;;4198542;28;20304;-80
2023/01/19 05:00:22;;;;;;;8.80;3.58;;;-3.40;99.90;;;;;;4196372;28;20218;-79
2023/01/19 05:02:24;;;;;;;11.45;4.05;;;-4.10;99.90;;;;;;4199417;28;20613;-80
2023/01/19 05:04:26;;;;;;;14.50;3.90;;;-4.10;99.90;;;;;;4200254;28;20228;-79
2023/01/19 05:06:28;;;;;;;9.88;4.30;;;-4.10;99.90;;;;;;4215426;28;20217;-79
2023/01/19 05:08:31;;;;;;;8.43;3.78;;;-4.10;99.90;;;;;;4202133;28;20215;-80
2023/01/19 05:10:33;;;;;;;12.80;4.18;;;-4.20;99.90;;;;;;4205167;28;20232;-79
2023/01/19 05:12:35;;;;;;;9.20;4.10;;;-4.20;99.90;;;;;;4202073;28;20242;-79
2023/01/19 05:14:37;;;;;;;9.02;3.55;;;-4.20;99.90;;;;;;4202506;28;20267;-79
2023/01/19 05:16:39;;;;;;;8.23;3.78;;;-4.20;99.90;;;;;;4198101;28;20209;-79
2023/01/19 05:18:41;;;;;;;10.68;4.30;;;-3.70;99.90;;;;;;4197330;28;20228;-79
2023/01/19 05:20:43;;;;;;;13.57;5.45;;;-4.20;99.90;;;;;;4198349;28;21050;-80
2023/01/19 05:22:49;;;;;;;12.32;4.28;;;-4.20;99.90;;;;;;4195600;28;20209;-79
2023/01/19 05:24:53;;;;;;;10.45;4.72;;;-4.20;99.90;;;;;;4197069;28;20196;-80
2023/01/19 05:26:55;;;;;;;11.57;4.55;;;-4.30;99.90;;;;;;4195567;28;20553;-80
2023/01/19 05:28:57;;;;;;;7.60;3.78;;;-4.10;99.90;;;;;;4192400;28;20210;-79
2023/01/19 05:30:59;;;;;;;10.18;4.15;;;-4.30;99.90;;;;;;4193748;28;20703;-80
2023/01/19 05:33:01;;;;;;;10.30;3.83;;;-4.30;99.90;;;;;;4192585;28;20284;-80
2023/01/19 05:35:03;;;;;;;11.55;4.88;;;-3.60;99.90;;;;;;4196593;28;20229;-80
2023/01/19 05:37:05;;;;;;;10.32;4.57;;;-4.30;99.90;;;;;;4191503;28;20761;-79
2023/01/19 05:39:07;;;;;;;14.10;4.20;;;-4.30;99.90;;;;;;4195344;28;20220;-80
2023/01/19 05:41:10;;;;;;;12.48;4.95;;;-4.40;99.90;;;;;;4193950;28;20225;-79
2023/01/19 05:43:12;;;;;;;8.95;4.50;;;-4.40;99.90;;;;;;4193444;28;20226;-79
2023/01/19 05:45:14;;;;;;;10.95;4.93;;;-4.40;99.90;;;;;;4194356;28;20208;-79
2023/01/19 05:47:16;;;;;;;14.32;5.07;;;-4.30;99.90;;;;;;4193969;28;20236;-80
2023/01/19 05:49:18;;;;;;;15.15;6.53;;;-4.30;99.90;;;;;;4198320;28;20235;-79
2023/01/19 05:51:20;;;;;;;13.85;5.53;;;-4.20;99.90;;;;;;4198793;28;20221;-79
2023/01/19 05:53:22;;;;;;;12.40;5.20;;;-4.30;99.90;;;;;;4200996;28;20237;-80
2023/01/19 05:55:24;;;;;;;14.88;5.50;;;-4.30;99.90;;;;;;4203953;28;20209;-80
2023/01/19 05:57:27;;;;;;;13.00;5.82;;;-4.30;99.90;;;;;;4208307;28;20231;-79
2023/01/19 05:59:29;;;;;;;19.63;5.82;;;-4.30;99.90;;;;;;4200459;28;20222;-80
2023/01/19 06:01:32;;;;;;;12.45;5.57;;;-4.30;99.90;;;;;;4198419;28;20209;-80
2023/01/19 06:03:35;;;;;;;13.93;5.47;;;-4.30;99.90;;;;;;4195973;28;20235;-79
2023/01/19 06:05:39;;;;;;;14.65;5.82;;;-4.30;99.90;;;;;;4209569;28;20569;-80
2023/01/19 06:07:41;;;;;;;11.43;5.53;;;-4.10;99.90;;;;;;4198325;28;20268;-80
2023/01/19 06:09:43;;;;;;;13.23;5.13;;;-4.30;99.90;;;;;;4198788;28;20194;-80
2023/01/19 06:11:45;;;;;;;13.73;5.90;;;-4.30;99.90;;;;;;4197804;28;20209;-80
2023/01/19 06:13:48;;;;;;;13.75;6.20;;;-4.20;99.90;;;;;;4193740;28;20231;-80
2023/01/19 06:15:57;;;;;;;12.43;5.30;;;-4.30;99.90;;;;;;4197202;28;20667;-80
2023/01/19 06:17:59;;;;;;;13.90;6.10;;;-4.30;99.90;;;;;;4198804;28;20207;-79
2023/01/19 06:20:01;;;;;;;14.70;6.13;;;-4.20;99.90;;;;;;4215005;28;20329;-80
2023/01/19 06:22:03;;;;;;;12.88;5.25;;;-4.20;99.90;;;;;;4200748;28;20205;-79
2023/01/19 06:24:06;;;;;;;13.68;6.15;;;-4.30;99.90;;;;;;4201697;28;20723;-80
2023/01/19 06:26:08;;;;;;;16.33;6.35;;;-4.30;99.90;;;;;;4212243;28;20208;-80
2023/01/19 06:28:10;;;;;;;13.05;6.07;;;-4.20;99.90;;;;;;4197200;28;20205;-79
2023/01/19 06:30:14;;;;;;;14.45;6.28;;;-4.20;99.90;;;;;;4199412;28;20205;-80
2023/01/19 06:32:16;;;;;;;14.90;6.80;;;-4.30;99.90;;;;;;4197446;28;20194;-80
2023/01/19 06:34:18;;;;;;;16.55;6.30;;;-4.30;99.90;;;;;;4200879;28;20232;-80
2023/01/19 06:36:20;;;;;;;16.08;6.97;;;-4.30;99.90;;;;;;4195299;28;20218;-81
2023/01/19 06:38:22;;;;;;;20.63;7.18;;;-3.10;99.90;;;;;;4199014;28;20217;-80
2023/01/19 06:40:24;;;;;;;15.23;6.88;;;-4.00;99.90;;;;;;4211709;28;20227;-80
2023/01/19 06:42:28;;;;;;;13.45;6.53;;;-3.70;99.90;;;;;;4201411;28;20452;-80
2023/01/19 06:44:30;;;;;;;24.27;8.90;;;-4.00;99.90;;;;;;4200585;28;20241;-80
2023/01/19 06:46:34;;;;;;;20.38;8.02;;;-4.20;99.90;;;;;;4213668;28;20212;-80
2023/01/19 06:48:36;;;;;;;18.35;6.82;;;-4.20;99.90;;;;;;4211405;28;20279;-81
2023/01/19 06:50:39;;;;;;;19.08;7.50;;;-4.20;99.90;;;;;;4194926;28;20205;-80
2023/01/19 06:52:42;;;;;;;15.20;6.65;;;-3.80;99.90;;;;;;4197961;28;20875;-79
2023/01/19 06:54:44;;;;;;;20.30;7.47;;;-4.20;99.90;;;;;;4197314;28;20238;-79
2023/01/19 06:56:46;;;;;;;15.07;6.45;;;-4.20;99.90;;;;;;4211245;28;20212;-79
2023/01/19 06:58:49;;;;;;;17.40;6.90;;;-4.20;99.90;;;;;;4199476;28;20208;-83
2023/01/19 07:00:51;;;;;;;18.20;7.35;;;-4.10;99.90;;;;;;4199685;28;21170;-80
2023/01/19 07:02:54;;;;;;;16.45;6.93;;;-4.20;99.90;;;;;;4196102;28;20204;-79
2023/01/19 07:04:57;;;;;;;18.50;7.45;;;-2.90;99.90;;;;;;4196257;28;20289;-79
2023/01/19 07:06:58;;;;;;;19.65;8.10;;;-4.10;99.90;;;;;;4194097;28;20335;-79
2023/01/19 07:09:05;;;;;;;19.70;7.97;;;-4.10;99.90;;;;;;4185141;28;21867;-79
2023/01/19 07:11:09;;;;;;;23.33;7.60;;;-4.10;99.90;;;;;;4193038;28;20582;-79
2023/01/19 07:13:11;;;;;;;20.83;8.35;;;-4.10;99.90;;;;;;4191946;28;20218;-79
2023/01/19 07:15:18;;;;;;;21.60;9.05;;;-4.10;99.90;;;;;;4196600;28;20252;-79
2023/01/19 07:17:20;;;;;;;21.17;8.00;;;-4.10;99.90;;;;;;4194591;28;20265;-79
2023/01/19 07:19:23;;;;;;;16.83;7.05;;;-4.10;99.90;;;;;;4194759;28;20205;-79
2023/01/19 07:21:25;;;;;;;14.73;7.07;;;-4.10;99.90;;;;;;4198619;28;21027;-79
2023/01/19 07:23:29;;;;;;;23.58;8.40;;;-4.00;99.90;;;;;;4194172;28;20228;-79
2023/01/19 07:25:31;;;;;;;17.23;7.90;;;-4.10;99.90;;;;;;4198194;28;20288;-79
2023/01/19 07:27:33;;;;;;;18.52;8.13;;;-3.90;99.90;;;;;;4203467;28;20212;-79
2023/01/19 07:29:35;;;;;;;17.08;7.40;;;-4.00;99.90;;;;;;4197484;28;20234;-79
2023/01/19 07:31:37;;;;;;;22.40;8.40;;;-4.00;99.90;;;;;;4220391;28;20239;-79
2023/01/19 07:33:39;;;;;;;18.58;8.32;;;-4.00;99.90;;;;;;4199818;28;20594;-80
2023/01/19 07:35:46;;;;;;;19.27;8.15;;;-4.00;99.90;;;;;;4201845;28;20212;-79
2023/01/19 07:37:48;;;;;;;18.20;8.55;;;-3.90;99.90;;;;;;4211861;28;20336;-78
2023/01/19 07:39:50;;;;;;;19.42;8.68;;;-3.90;99.90;;;;;;4197464;28;20938;-80
2023/01/19 07:41:52;;;;;;;19.55;8.45;;;-3.80;99.90;;;;;;4200440;28;20213;-80
2023/01/19 07:43:54;;;;;;;19.08;8.95;;;-3.90;99.90;;;;;;4198928;28;20345;-79
2023/01/19 07:45:57;;;;;;;19.50;8.07;;;-3.80;99.90;;;;;;4200296;28;20212;-79
2023/01/19 07:47:59;;;;;;;18.75;8.27;;;-4.40;99.90;;;;;;4196880;28;20217;-80
2023/01/19 07:50:00;;;;;;;18.95;8.77;;;-3.80;99.90;;;;;;4194428;28;20260;-79
2023/01/19 07:52:04;;;;;;;19.48;8.38;;;-3.80;99.90;;;;;;4197190;28;20691;-79
2023/01/19 07:54:07;;;;;;;22.02;8.95;;;-3.80;99.90;;;;;;4199131;28;20221;-79
2023/01/19 07:56:10;;;;;;;20.80;8.90;;;-3.80;99.90;;;;;;4197698;28;20291;-79
2023/01/19 07:58:12;;;;;;;20.20;8.65;;;-3.80;99.90;;;;;;4197999;28;20653;-79
2023/01/19 08:00:14;;;;;;;21.23;9.05;;;-3.70;99.90;;;;;;4197386;28;20230;-79
2023/01/19 08:02:16;;;;;;;18.77;8.63;;;-3.70;99.90;;;;;;4195361;28;20578;-79
2023/01/19 08:04:18;;;;;;;15.93;7.80;;;-3.70;99.90;;;;;;4196416;28;20730;-79
2023/01/19 08:06:22;;;;;;;21.98;8.52;;;-3.70;99.90;;;;;;4195463;28;20243;-79
2023/01/19 08:08:26;;;;;;;16.55;7.97;;;-3.70;99.90;;;;;;4192796;28;20282;-79
2023/01/19 08:10:29;;;;;;;17.70;7.90;;;-2.40;99.90;;;;;;4196774;28;20217;-78
2023/01/19 08:12:31;;;;;;;19.20;8.82;;;-3.60;99.90;;;;;;4191399;28;20240;-75
2023/01/19 08:14:33;;;;;;;17.05;6.97;;;-3.60;99.90;;;;;;4197774;28;20226;-80
2023/01/19 08:16:35;;;;;;;16.80;7.75;;;-3.60;99.90;;;;;;4193611;28;20711;-79
2023/01/19 08:18:37;;;;;;;19.67;7.68;;;-3.30;99.90;;;;;;4208230;28;20205;-80
2023/01/19 08:20:39;;;;;;;15.77;7.63;;;-3.10;99.90;;;;;;4211607;28;20232;-81
2023/01/19 08:22:40;;;;;;;20.40;8.57;;;-3.50;99.90;;;;;;4209463;28;20239;-80
2023/01/19 08:24:44;;;;;;;22.70;9.30;;;-3.20;99.90;;;;;;4207106;28;20233;-79
2023/01/19 08:26:46;;;;;;;20.02;8.27;;;-3.10;99.90;;;;;;4207444;28;20220;-79
2023/01/19 08:28:48;;;;;;;21.77;7.97;;;-3.40;99.90;;;;;;4203810;28;20198;-80
2023/01/19 08:30:54;;;;;;;17.65;7.63;;;-3.40;99.90;;;;;;4203715;28;20194;-80
2023/01/19 08:33:02;;;;;;;20.23;8.52;;;-3.30;99.90;;;;;;4205712;28;20265;-80
2023/01/19 08:35:05;;;;;;;18.75;8.40;;;-3.30;99.90;;;;;;4196153;28;20231;-79
2023/01/19 08:37:10;;;;;;;17.92;8.77;;;-3.30;99.90;;;;;;4197283;28;20733;-79
2023/01/19 08:39:12;;;;;;;18.83;7.70;;;-3.20;99.90;;;;;;4193347;28;20222;-79
2023/01/19 08:41:16;;;;;;;15.98;8.20;;;-3.20;99.90;;;;;;4193356;28;20340;-78
2023/01/19 08:43:18;;;;;;;18.77;8.38;;;-3.20;99.90;;;;;;4194340;28;20239;-79
2023/01/19 08:45:20;;;;;;;16.98;7.55;;;-3.20;99.90;;;;;;4195376;28;20263;-79
2023/01/19 08:47:22;;;;;;;18.88;8.00;;;-3.10;99.90;;;;;;4194672;28;20262;-79
2023/01/19 08:49:24;;;;;;;19.13;7.88;;;-3.10;99.90;;;;;;4195008;28;20210;-79
2023/01/19 08:51:26;;;;;;;17.42;7.72;;;-3.00;99.90;;;;;;4195203;28;20285;-79
2023/01/19 08:53:28;;;;;;;17.13;7.68;;;-3.00;99.90;;;;;;4191798;28;20324;-79
2023/01/19 08:55:30;;;;;;;16.42;8.25;;;-2.50;99.90;;;;;;4193109;28;20214;-79
2023/01/19 08:57:33;;;;;;;17.55;7.75;;;-2.90;99.90;;;;;;4195351;28;20267;-78
2023/01/19 08:59:35;;;;;;;19.45;7.80;;;-2.90;99.90;;;;;;4195280;28;20240;-78
2023/01/19 09:01:37;;;;;;;17.52;7.63;;;-2.80;99.90;;;;;;4195392;28;20296;-78
2023/01/19 09:03:40;;;;;;;15.30;7.53;;;-2.80;99.90;;;;;;4193386;28;20217;-79
2023/01/19 09:05:42;;;;;;;17.45;7.70;;;-2.80;99.90;;;;;;4194517;28;20628;-78
2023/01/19 09:07:44;;;;;;;19.38;7.97;;;-2.70;99.90;;;;;;4194375;28;20277;-78
2023/01/19 09:09:46;;;;;;;15.88;8.15;;;-2.70;99.90;;;;;;4194439;28;20206;-78
2023/01/19 09:11:48;;;;;;;21.48;7.80;;;-2.50;99.90;;;;;;4196669;28;20201;-79
2023/01/19 09:13:51;;;;;;;18.13;8.18;;;-2.50;99.90;;;;;;4195258;28;20229;-78
2023/01/19 09:15:53;;;;;;;17.90;7.38;;;-2.70;99.90;;;;;;4189588;28;20274;-78
2023/01/19 09:17:55;;;;;;;21.50;7.90;;;-2.40;99.90;;;;;;4193288;28;20226;-78
2023/01/19 09:19:57;;;;;;;17.27;7.60;;;-2.40;99.90;;;;;;4192722;28;20202;-79
2023/01/19 09:21:59;;;;;;;21.75;8.05;;;-2.40;99.90;;;;;;4194746;28;20479;-80
2023/01/19 09:24:01;;;;;;;17.97;7.27;;;-2.30;99.90;;;;;;4195424;28;20237;-80
2023/01/19 09:26:04;;;;;;;16.03;7.33;;;-2.30;99.90;;;;;;4194766;28;20447;-78
2023/01/19 09:28:08;;;;;;;21.60;7.90;;;-2.30;99.90;;;;;;4187855;28;20479;-78
2023/01/19 09:30:12;;;;;;;18.47;8.50;;;-1.50;99.90;;;;;;4195443;28;20205;-81
2023/01/19 09:32:14;;;;;;;18.40;7.55;;;-2.20;99.90;;;;;;4190173;28;20441;-81
2023/01/19 09:34:16;;;;;;;16.47;7.77;;;-2.10;99.90;;;;;;4191326;28;20226;-79
2023/01/19 09:36:18;;;;;;;14.73;7.87;;;-2.10;99.90;;;;;;4190526;28;20492;-78
2023/01/19 09:38:24;;;;;;;22.83;9.13;;;-2.00;99.90;;;;;;4192580;28;20451;-81
2023/01/19 09:40:27;;;;;;;17.50;8.40;;;-2.00;99.90;;;;;;4198985;28;20486;-80
2023/01/19 09:42:37;;;;;;;19.37;7.33;;;-1.90;99.90;;;;;;4209839;28;20465;-81
2023/01/19 09:44:41;;;;;;;18.10;8.18;;;-1.90;99.90;;;;;;4228036;28;20487;-81
2023/01/19 09:46:45;;;;;;;16.67;7.17;;;-1.80;99.90;;;;;;4209224;28;20235;-79
2023/01/19 09:48:48;;;;;;;19.00;8.03;;;-1.60;99.90;;;;;;4208326;28;20435;-79
2023/01/19 09:50:50;;;;;;;19.10;8.43;;;-1.80;99.90;;;;;;4224984;28;20459;-80
2023/01/19 09:52:59;;;;;;;16.90;8.07;;;-1.70;99.90;;;;;;4204751;28;20536;-78
2023/01/19 09:55:02;;;;;;;15.47;7.60;;;-1.70;99.90;;;;;;4198400;28;20487;-79
2023/01/19 09:57:09;;;;;;;18.60;8.67;;;-1.60;99.90;;;;;;4203642;28;20464;-78
2023/01/19 09:59:20;;;;;;;20.80;8.53;;;-1.60;99.90;;;;;;4194816;28;20433;-78
2023/01/19 10:01:45;;;;;;;17.90;8.57;;;-1.60;99.90;;;;;;4212996;28;20471;-78
2023/01/19 10:03:55;;;;;;;17.43;7.43;;;-1.50;99.90;;;;;;4214185;28;20508;-78
2023/01/19 10:06:02;;;;;;;19.80;8.70;;;-1.50;99.90;;;;;;4215282;28;20458;-78
2023/01/19 10:08:20;;;;;;;19.50;9.10;;;-1.40;99.90;;;;;;4203542;28;20447;-78
2023/01/19 10:10:25;;;;;;;15.47;7.80;;;-1.00;99.90;;;;;;4220221;28;20961;-78
2023/01/19 10:12:45;;;;;;;14.87;7.50;;;-1.30;99.90;;;;;;4221059;28;21252;-79
2023/01/19 10:14:58;;;;;;;20.40;8.33;;;-0.70;99.90;;;;;;4201964;28;20459;-78
2023/01/19 10:17:13;;;;;;;19.47;8.47;;;-1.20;99.90;;;;;;4202425;28;20550;-79
2023/01/19 10:19:23;;;;;;;16.30;8.27;;;-0.90;99.90;;;;;;4193306;28;20444;-78
2023/01/19 10:21:30;;;;;;;18.90;7.63;;;0.00;99.90;;;;;;4193064;28;20474;-78
2023/01/19 10:23:41;;;;;;;17.07;7.87;;;-1.10;99.90;;;;;;4196094;28;20743;-79
2023/01/19 10:25:43;;;;;;;14.67;7.57;;;-1.00;99.90;;;;;;4205436;28;20447;-78
2023/01/19 10:27:46;;;;;;;16.33;7.83;;;-1.00;99.90;;;;;;4194991;28;20479;-78
2023/01/19 10:29:48;;;;;;;18.47;7.80;;;-0.60;99.90;;;;;;4197118;28;20527;-77
2023/01/19 10:31:53;;;;;;;14.27;7.53;;;0.00;99.90;;;;;;4194743;28;20837;-77
2023/01/19 10:33:54;;;;;;;17.97;8.13;;;-0.90;99.90;;;;;;4196431;28;20484;-77
2023/01/19 10:35:58;;;;;;;18.40;8.23;;;-0.90;99.90;;;;;;4195973;28;20453;-80
2023/01/19 10:38:02;;;;;;;19.53;8.17;;;-0.70;99.90;;;;;;4193622;28;20472;-78
2023/01/19 10:40:19;;;;;;;17.80;8.13;;;-0.70;99.90;;;;;;4196331;28;20459;-78
2023/01/19 10:42:21;;;;;;;20.43;8.50;;;-0.70;99.90;;;;;;4196076;28;21181;-78
2023/01/19 10:44:24;;;;;;;18.40;8.60;;;-0.30;99.90;;;;;;4197801;28;20488;-78
2023/01/19 10:46:34;;;;;;;15.40;7.67;;;-0.60;99.90;;;;;;4196227;28;20452;-79
2023/01/19 10:48:40;;;;;;;18.20;8.80;;;-0.50;99.90;;;;;;4211973;28;20457;-78